createdAt,value
2022-12-18T00:02:48.235Z,-5.79
2022-12-18T00:06:51.498Z,-6.03
2022-12-18T00:10:54.724Z,-5.98
2022-12-18T00:15:05.786Z,-5.87
2022-12-18T00:19:09.338Z,-5.83
2022-12-18T00:23:12.459Z,-5.84
2022-12-18T00:27:15.592Z,-5.88
2022-12-18T00:31:23.397Z,-5.83
2022-12-18T00:35:29.259Z,-5.89
2022-12-18T00:39:32.567Z,-5.88
2022-12-18T00:43:36.596Z,-5.78
2022-12-18T00:47:41.759Z,-5.86
2022-12-18T00:51:45.116Z,-5.87
2022-12-18T00:55:48.452Z,-5.84
2022-12-18T00:59:51.609Z,-5.82
2022-12-18T01:03:56.595Z,-5.84
2022-12-18T01:08:00.348Z,-5.90
2022-12-18T01:12:03.490Z,-5.98
2022-12-18T01:16:07.600Z,-5.92
2022-12-18T01:20:15.351Z,-5.87
2022-12-18T01:24:18.445Z,-5.72
2022-12-18T01:28:21.562Z,-5.76
2022-12-18T01:32:24.946Z,-5.72
2022-12-18T01:36:31.665Z,-5.72
2022-12-18T01:40:35.022Z,-5.62
2022-12-18T01:45:01.593Z,-5.67
2022-12-18T01:49:05.159Z,-5.71
2022-12-18T01:53:13.310Z,-5.88
2022-12-18T01:57:17.087Z,-5.99
2022-12-18T02:01:21.220Z,-6.07
2022-12-18T02:05:34.216Z,-5.88
2022-12-18T02:09:48.731Z,-5.78
2022-12-18T02:13:59.011Z,-5.76
2022-12-18T02:18:09.953Z,-5.65
2022-12-18T02:22:26.997Z,-5.64
2022-12-18T02:26:35.974Z,-5.65
2022-12-18T02:30:41.526Z,-5.79
2022-12-18T02:34:46.634Z,-5.76
2022-12-18T02:38:54.619Z,-5.77
2022-12-18T02:43:05.557Z,-5.75
2022-12-18T02:47:13.068Z,-5.78
2022-12-18T02:51:26.150Z,-5.82
2022-12-18T02:55:46.607Z,-5.77
2022-12-18T03:00:00.665Z,-5.88
2022-12-18T03:04:10.182Z,-5.95
2022-12-18T03:08:19.873Z,-6.03
2022-12-18T03:12:30.625Z,-6.08
2022-12-18T03:16:38.322Z,-6.05
2022-12-18T03:20:47.529Z,-6.06
2022-12-18T03:24:56.158Z,-6.19
2022-12-18T03:29:06.615Z,-6.26
2022-12-18T03:33:15.968Z,-6.42
2022-12-18T03:37:22.204Z,-6.50
2022-12-18T03:41:33.756Z,-6.48
2022-12-18T03:46:08.997Z,-6.43
2022-12-18T03:50:18.873Z,-6.47
2022-12-18T03:54:27.651Z,-6.56
2022-12-18T03:58:40.767Z,-6.43
2022-12-18T04:02:56.597Z,-6.49
2022-12-18T04:07:09.370Z,-6.40
2022-12-18T04:11:15.370Z,-6.45
2022-12-18T04:15:20.730Z,-6.28
2022-12-18T04:19:24.247Z,-6.10
2022-12-18T04:23:30.608Z,-6.02
2022-12-18T04:27:35.733Z,-5.96
2022-12-18T04:31:40.773Z,-5.98
2022-12-18T04:35:44.228Z,-5.85
2022-12-18T04:39:48.989Z,-5.77
2022-12-18T04:44:00.179Z,-5.89
2022-12-18T04:48:04.347Z,-5.84
2022-12-18T04:52:08.902Z,-5.70
2022-12-18T04:56:15.420Z,-5.59
2022-12-18T05:00:18.850Z,-5.60
2022-12-18T05:04:22.006Z,-5.59
2022-12-18T05:08:25.744Z,-5.56
2022-12-18T05:12:30.274Z,-5.55
2022-12-18T05:16:33.567Z,-5.58
2022-12-18T05:20:36.693Z,-5.61
2022-12-18T05:24:40.900Z,-5.56
2022-12-18T05:28:45.923Z,-5.53
2022-12-18T05:32:49.086Z,-5.61
2022-12-18T05:36:52.240Z,-5.68
2022-12-18T05:40:56.103Z,-5.72
2022-12-18T05:45:00.554Z,-5.88
2022-12-18T05:49:03.869Z,-5.89
2022-12-18T05:53:07.673Z,-5.84
2022-12-18T05:57:11.292Z,-5.85
2022-12-18T06:01:18.729Z,-5.80
2022-12-18T06:05:22.122Z,-5.89
2022-12-18T06:09:25.495Z,-5.94
2022-12-18T06:13:28.713Z,-5.85
2022-12-18T06:17:34.015Z,-5.68
2022-12-18T06:21:37.358Z,-5.71
2022-12-18T06:25:41.363Z,-5.54
2022-12-18T06:29:44.705Z,-5.49
2022-12-18T06:33:49.303Z,-5.47
2022-12-18T06:37:52.584Z,-5.46
2022-12-18T06:41:55.935Z,-5.48
2022-12-18T06:46:01.503Z,-5.44
2022-12-18T06:50:06.833Z,-5.43
2022-12-18T06:54:10.392Z,-5.40
2022-12-18T06:58:13.492Z,-5.36
2022-12-18T07:02:19.936Z,-5.36
2022-12-18T07:06:26.128Z,-5.38
2022-12-18T07:10:29.461Z,-5.42
2022-12-18T07:14:32.676Z,-5.44
2022-12-18T07:18:36.127Z,-5.43
2022-12-18T07:22:40.626Z,-5.44
2022-12-18T07:26:43.829Z,-5.43
2022-12-18T07:30:47.048Z,-5.44
2022-12-18T07:34:50.887Z,-5.55
2022-12-18T07:38:55.479Z,-5.49
2022-12-18T07:42:58.734Z,-5.43
2022-12-18T07:47:01.873Z,-5.37
2022-12-18T07:51:07.583Z,-5.36
2022-12-18T07:55:12.285Z,-5.29
2022-12-18T07:59:15.394Z,-5.12
2022-12-18T08:03:18.537Z,-4.88
2022-12-18T08:07:21.684Z,-4.90
2022-12-18T08:11:28.309Z,-4.88
2022-12-18T08:15:31.459Z,-4.90
2022-12-18T08:19:34.576Z,-4.90
2022-12-18T08:23:42.350Z,-4.81
2022-12-18T08:27:47.727Z,-4.79
2022-12-18T08:31:50.986Z,-4.71
2022-12-18T08:35:54.398Z,-4.58
2022-12-18T08:39:57.611Z,-4.54
2022-12-18T08:44:19.760Z,-4.49
2022-12-18T08:48:23.418Z,-4.32
2022-12-18T08:52:26.622Z,-4.10
2022-12-18T08:56:31.392Z,-3.94
2022-12-18T09:00:35.929Z,-3.66
2022-12-18T09:04:41.203Z,-3.58
2022-12-18T09:08:44.768Z,-3.66
2022-12-18T09:12:48.127Z,-3.25
2022-12-18T09:16:52.707Z,-2.89
2022-12-18T09:20:56.091Z,-2.89
2022-12-18T09:24:59.181Z,-2.70
2022-12-18T09:29:02.467Z,-2.84
2022-12-18T09:33:07.118Z,-2.57
2022-12-18T09:37:10.739Z,-2.36
2022-12-18T09:41:27.651Z,-2.24
2022-12-18T09:45:37.657Z,-2.35
2022-12-18T09:49:46.558Z,-2.26
2022-12-18T09:53:54.936Z,-2.18
2022-12-18T09:58:03.570Z,-2.35
2022-12-18T10:02:22.359Z,-2.20
2022-12-18T10:06:37.733Z,-2.16
2022-12-18T10:10:46.085Z,-1.94
2022-12-18T10:14:59.262Z,-1.58
2022-12-18T10:19:23.410Z,-1.54
2022-12-18T10:23:35.853Z,-1.19
2022-12-18T10:27:39.076Z,-1.57
2022-12-18T10:31:42.594Z,-1.22
2022-12-18T10:35:47.551Z,-1.22
2022-12-18T10:40:09.524Z,-1.44
2022-12-18T10:44:18.077Z,-1.16
2022-12-18T10:48:23.483Z,-1.10
2022-12-18T10:52:29.428Z,-1.09
2022-12-18T10:56:37.144Z,-1.15
2022-12-18T11:00:40.587Z,-1.05
2022-12-18T11:04:54.000Z,-0.99
2022-12-18T11:09:03.662Z,-0.94
2022-12-18T11:13:19.433Z,-0.88
2022-12-18T11:17:26.114Z,-0.83
2022-12-18T11:21:30.068Z,-0.96
2022-12-18T11:25:36.335Z,-0.91
2022-12-18T11:29:46.548Z,-0.86
2022-12-18T11:34:27.013Z,-0.81
2022-12-18T11:38:25.250Z,-0.93
2022-12-18T11:42:38.159Z,-0.88
2022-12-18T11:46:51.451Z,-0.83
2022-12-18T11:50:57.598Z,-0.71
2022-12-18T11:55:03.892Z,-0.65
2022-12-18T11:59:15.827Z,-0.65
2022-12-18T12:03:49.983Z,-0.61
2022-12-18T12:08:01.817Z,-0.54
2022-12-18T12:12:20.237Z,-0.47
2022-12-18T12:16:31.713Z,-0.45
2022-12-18T12:20:49.975Z,-0.57
2022-12-18T12:25:04.530Z,-0.54
2022-12-18T12:29:23.754Z,-0.38
2022-12-18T12:33:39.937Z,-0.35
2022-12-18T12:37:55.567Z,-0.32
2022-12-18T12:42:16.786Z,-0.26
2022-12-18T12:46:23.889Z,-0.30
2022-12-18T12:50:28.503Z,-0.24
2022-12-18T12:54:34.903Z,-0.34
2022-12-18T12:58:48.225Z,-0.32
2022-12-18T13:02:58.930Z,-0.30
2022-12-18T13:07:08.559Z,-0.33
2022-12-18T13:11:54.827Z,-0.32
2022-12-18T13:16:07.769Z,-0.26
2022-12-18T13:20:14.042Z,-0.19
2022-12-18T13:24:26.841Z,-0.22
2022-12-18T13:28:56.272Z,-0.24
2022-12-18T13:34:02.066Z,-0.24
2022-12-18T13:38:23.072Z,-0.32
2022-12-18T13:43:02.021Z,-0.43
2022-12-18T13:47:07.817Z,-0.41
2022-12-18T13:51:13.120Z,-0.45
2022-12-18T13:55:20.478Z,-0.50
2022-12-18T13:59:27.238Z,-0.50
2022-12-18T14:03:32.609Z,-0.49
2022-12-18T14:07:38.300Z,-0.53
2022-12-18T14:11:52.384Z,-0.52
2022-12-18T14:15:56.676Z,-0.53
2022-12-18T14:20:02.607Z,-0.54
2022-12-18T14:24:08.529Z,-0.58
2022-12-18T14:28:17.954Z,-0.57
2022-12-18T14:32:23.572Z,-0.61
2022-12-18T14:36:30.205Z,-0.61
2022-12-18T14:40:33.519Z,-0.56
2022-12-18T14:44:50.578Z,-0.55
2022-12-18T14:49:00.946Z,-0.63
2022-12-18T14:53:05.672Z,-0.64
2022-12-18T14:57:28.275Z,-0.64
2022-12-18T15:01:34.829Z,-0.62
2022-12-18T15:05:38.167Z,-0.61
2022-12-18T15:09:44.877Z,-0.61
2022-12-18T15:13:48.080Z,-0.61
2022-12-18T15:17:51.268Z,-0.64
2022-12-18T15:21:54.506Z,-0.63
2022-12-18T15:26:00.977Z,-0.65
2022-12-18T15:30:20.053Z,-0.64
2022-12-18T15:34:24.569Z,-0.68
2022-12-18T15:38:28.083Z,-0.72
2022-12-18T15:42:46.699Z,-0.74
2022-12-18T15:46:49.818Z,-0.79
2022-12-18T15:50:54.736Z,-0.82
2022-12-18T15:55:15.326Z,-0.79
2022-12-18T15:59:21.907Z,-0.84
2022-12-18T16:03:25.124Z,-0.89
2022-12-18T16:07:31.103Z,-0.92
2022-12-18T16:11:42.959Z,-0.92
2022-12-18T16:15:47.735Z,-0.97
2022-12-18T16:19:50.943Z,-0.97
2022-12-18T16:23:54.039Z,-1.03
2022-12-18T16:27:58.323Z,-1.01
2022-12-18T16:32:03.326Z,-1.06
2022-12-18T16:36:07.144Z,-1.09
2022-12-18T16:40:13.678Z,-1.11
2022-12-18T16:44:16.880Z,-1.06
2022-12-18T16:48:21.476Z,-1.10
2022-12-18T16:52:24.797Z,-1.10
2022-12-18T16:56:28.566Z,-1.12
2022-12-18T17:00:31.734Z,-1.13
2022-12-18T17:04:36.361Z,-1.09
2022-12-18T17:08:39.563Z,-1.06
2022-12-18T17:12:43.029Z,-1.09
2022-12-18T17:16:49.181Z,-1.08
2022-12-18T17:21:02.157Z,-1.06
2022-12-18T17:25:06.069Z,-0.99
2022-12-18T17:29:09.531Z,-1.00
2022-12-18T17:33:12.792Z,-0.97
2022-12-18T17:37:19.066Z,-0.99
2022-12-18T17:41:22.578Z,-0.94
2022-12-18T17:45:25.769Z,-0.93
2022-12-18T17:49:28.976Z,-0.92
2022-12-18T17:53:34.050Z,-0.92
2022-12-18T17:57:37.767Z,-0.96
2022-12-18T18:01:44.736Z,-0.92
2022-12-18T18:05:48.664Z,-0.96
2022-12-18T18:09:53.255Z,-0.91
2022-12-18T18:14:02.410Z,-0.96
2022-12-18T18:18:05.978Z,-1.01
2022-12-18T18:22:09.343Z,-1.00
2022-12-18T18:26:14.103Z,-0.99
2022-12-18T18:30:17.652Z,-1.00
2022-12-18T18:34:24.450Z,-0.96
2022-12-18T18:38:27.734Z,-0.91
2022-12-18T18:42:32.447Z,-0.92
2022-12-18T18:46:35.683Z,-0.89
2022-12-18T18:50:38.813Z,-0.88
2022-12-18T18:55:03.591Z,-0.83
2022-12-18T18:59:06.507Z,-0.80
2022-12-18T19:03:10.037Z,-0.76
2022-12-18T19:07:13.287Z,-0.65
2022-12-18T19:11:36.837Z,-0.68
2022-12-18T19:15:41.341Z,-0.66
2022-12-18T19:19:44.840Z,-0.63
2022-12-18T19:23:48.648Z,-0.63
2022-12-18T19:27:51.966Z,-0.62
2022-12-18T19:31:56.562Z,-0.66
2022-12-18T19:36:00.084Z,-0.53
2022-12-18T19:40:04.332Z,-0.52
2022-12-18T19:44:18.533Z,-0.51
2022-12-18T19:48:23.110Z,-0.51
2022-12-18T19:52:26.359Z,-0.49
2022-12-18T19:56:32.163Z,-0.50
2022-12-18T20:00:35.736Z,-0.49
2022-12-18T20:04:40.289Z,-0.55
2022-12-18T20:08:43.506Z,-0.51
2022-12-18T20:12:46.700Z,-0.54
2022-12-18T20:16:50.159Z,-0.49
2022-12-18T20:20:55.365Z,-0.48
2022-12-18T20:25:01.144Z,-0.45
2022-12-18T20:29:04.694Z,-0.48
2022-12-18T20:33:08.302Z,-0.43
2022-12-18T20:37:12.820Z,-0.46
2022-12-18T20:41:19.237Z,-0.39
2022-12-18T20:45:22.528Z,-0.33
2022-12-18T20:49:27.512Z,-0.32
2022-12-18T20:53:32.727Z,-0.36
2022-12-18T20:57:36.713Z,-0.30
2022-12-18T21:01:48.350Z,-0.28
2022-12-18T21:05:52.165Z,-0.27
2022-12-18T21:09:56.727Z,-0.28
2022-12-18T21:13:59.862Z,-0.33
2022-12-18T21:18:02.988Z,-0.37
2022-12-18T21:22:06.409Z,-0.40
2022-12-18T21:26:22.870Z,-0.46
2022-12-18T21:30:26.203Z,-0.50
2022-12-18T21:34:31.185Z,-0.51
2022-12-18T21:38:34.479Z,-0.52
2022-12-18T21:42:56.715Z,-0.52
2022-12-18T21:47:09.375Z,-0.54
2022-12-18T21:51:15.612Z,-0.54
2022-12-18T21:55:18.859Z,-0.55
2022-12-18T21:59:25.169Z,-0.50
2022-12-18T22:03:28.555Z,-0.50
2022-12-18T22:07:32.303Z,-0.45
2022-12-18T22:11:40.464Z,-0.42
2022-12-18T22:15:45.171Z,-0.39
2022-12-18T22:19:49.018Z,-0.35
2022-12-18T22:23:57.014Z,-0.34
2022-12-18T22:28:17.700Z,-0.36
2022-12-18T22:32:30.641Z,-0.37
2022-12-18T22:36:38.832Z,-0.34
2022-12-18T22:40:42.037Z,-0.30
2022-12-18T22:44:45.175Z,-0.25
2022-12-18T22:48:51.236Z,-0.20
2022-12-18T22:52:54.291Z,-0.13
2022-12-18T22:56:57.265Z,-0.07
2022-12-18T23:01:00.559Z,-0.03
2022-12-18T23:05:08.621Z,0.04
2022-12-18T23:09:16.636Z,0.14
2022-12-18T23:13:19.730Z,0.17
2022-12-18T23:17:23.160Z,0.21
2022-12-18T23:21:27.601Z,0.26
2022-12-18T23:25:32.229Z,0.26
2022-12-18T23:29:35.712Z,0.30
2022-12-18T23:33:38.866Z,0.35
2022-12-18T23:37:59.309Z,0.39
2022-12-18T23:42:03.140Z,0.44
2022-12-18T23:46:12.250Z,0.46
2022-12-18T23:50:15.597Z,0.50
2022-12-18T23:54:23.231Z,0.50
2022-12-18T23:58:37.896Z,0.50
